sensor_id;sensor_type;location;lat;lon;timestamp;temperature;humidity
39919;DHT22;25589;51.552;13.424;2023-08-06T00:00:17;18.70;99.90
39919;DHT22;25589;51.552;13.424;2023-08-06T00:02:43;18.70;99.90
39919;DHT22;25589;51.552;13.424;2023-08-06T00:05:09;18.60;99.90
39919;DHT22;25589;51.552;13.424;2023-08-06T00:07:35;18.60;99.90
39919;DHT22;25589;51.552;13.424;2023-08-06T00:10:00;18.60;99.90
39919;DHT22;25589;51.552;13.424;2023-08-06T00:12:26;18.40;99.90
39919;DHT22;25589;51.552;13.424;2023-08-06T00:14:52;18.60;99.90
39919;DHT22;25589;51.552;13.424;2023-08-06T00:17:18;18.60;99.90
39919;DHT22;25589;51.552;13.424;2023-08-06T00:19:44;18.60;99.90
39919;DHT22;25589;51.552;13.424;2023-08-06T00:22:10;18.60;99.90
39919;DHT22;25589;51.552;13.424;2023-08-06T00:24:35;18.60;99.90
39919;DHT22;25589;51.552;13.424;2023-08-06T00:27:02;18.60;99.90
39919;DHT22;25589;51.552;13.424;2023-08-06T00:29:28;18.60;99.90
39919;DHT22;25589;51.552;13.424;2023-08-06T00:31:53;18.60;99.90
39919;DHT22;25589;51.552;13.424;2023-08-06T00:34:19;18.50;99.90
39919;DHT22;25589;51.552;13.424;2023-08-06T00:36:45;18.60;99.90
39919;DHT22;25589;51.552;13.424;2023-08-06T00:39:11;18.60;99.90
39919;DHT22;25589;51.552;13.424;2023-08-06T00:41:37;18.60;99.90
39919;DHT22;25589;51.552;13.424;2023-08-06T00:44:03;18.50;99.90
39919;DHT22;25589;51.552;13.424;2023-08-06T00:46:30;18.50;99.90
39919;DHT22;25589;51.552;13.424;2023-08-06T00:48:57;18.50;99.90
39919;DHT22;25589;51.552;13.424;2023-08-06T00:51:22;18.40;99.90
39919;DHT22;25589;51.552;13.424;2023-08-06T00:53:50;18.40;99.90
39919;DHT22;25589;51.552;13.424;2023-08-06T00:56:15;18.40;99.90
39919;DHT22;25589;51.552;13.424;2023-08-06T00:58:41;18.30;99.90
39919;DHT22;25589;51.552;13.424;2023-08-06T01:01:07;18.20;99.90
39919;DHT22;25589;51.552;13.424;2023-08-06T01:03:32;18.20;99.90
39919;DHT22;25589;51.552;13.424;2023-08-06T01:06:00;18.20;99.90
39919;DHT22;25589;51.552;13.424;2023-08-06T01:08:52;18.20;99.90
39919;DHT22;25589;51.552;13.424;2023-08-06T01:11:32;18.40;99.90
39919;DHT22;25589;51.552;13.424;2023-08-06T01:14:06;18.00;99.90
39919;DHT22;25589;51.552;13.424;2023-08-06T01:16:33;18.10;99.90
39919;DHT22;25589;51.552;13.424;2023-08-06T01:18:59;18.00;99.90
39919;DHT22;25589;51.552;13.424;2023-08-06T01:21:24;18.40;99.90
39919;DHT22;25589;51.552;13.424;2023-08-06T01:23:50;18.00;99.90
39919;DHT22;25589;51.552;13.424;2023-08-06T01:26:26;18.10;99.90
39919;DHT22;25589;51.552;13.424;2023-08-06T01:29:07;18.00;99.90
39919;DHT22;25589;51.552;13.424;2023-08-06T01:31:41;17.90;99.90
39919;DHT22;25589;51.552;13.424;2023-08-06T01:34:13;17.90;99.90
39919;DHT22;25589;51.552;13.424;2023-08-06T01:36:42;17.90;99.90
39919;DHT22;25589;51.552;13.424;2023-08-06T01:39:08;17.80;99.90
39919;DHT22;25589;51.552;13.424;2023-08-06T01:41:34;17.90;99.90
39919;DHT22;25589;51.552;13.424;2023-08-06T01:43:59;17.90;99.90
39919;DHT22;25589;51.552;13.424;2023-08-06T01:46:25;17.80;99.90
39919;DHT22;25589;51.552;13.424;2023-08-06T01:48:51;17.80;99.90
39919;DHT22;25589;51.552;13.424;2023-08-06T01:51:16;17.90;99.90
39919;DHT22;25589;51.552;13.424;2023-08-06T01:53:42;17.80;99.90
39919;DHT22;25589;51.552;13.424;2023-08-06T01:56:07;17.90;99.90
39919;DHT22;25589;51.552;13.424;2023-08-06T01:58:34;17.90;99.90
39919;DHT22;25589;51.552;13.424;2023-08-06T02:01:01;17.70;99.90
39919;DHT22;25589;51.552;13.424;2023-08-06T02:03:26;17.80;99.90
39919;DHT22;25589;51.552;13.424;2023-08-06T02:05:52;17.70;99.90
39919;DHT22;25589;51.552;13.424;2023-08-06T02:08:17;17.80;99.90
39919;DHT22;25589;51.552;13.424;2023-08-06T02:10:44;17.80;99.90
39919;DHT22;25589;51.552;13.424;2023-08-06T02:13:10;17.80;99.90
39919;DHT22;25589;51.552;13.424;2023-08-06T02:15:36;17.70;99.90
39919;DHT22;25589;51.552;13.424;2023-08-06T02:18:06;17.80;99.90
39919;DHT22;25589;51.552;13.424;2023-08-06T02:20:32;17.90;99.90
39919;DHT22;25589;51.552;13.424;2023-08-06T02:22:58;17.90;99.90
39919;DHT22;25589;51.552;13.424;2023-08-06T02:25:24;17.90;99.90
39919;DHT22;25589;51.552;13.424;2023-08-06T02:27:49;17.90;99.90
39919;DHT22;25589;51.552;13.424;2023-08-06T02:30:15;17.90;99.90
39919;DHT22;25589;51.552;13.424;2023-08-06T02:32:41;17.90;99.90
39919;DHT22;25589;51.552;13.424;2023-08-06T02:37:35;17.80;99.90
39919;DHT22;25589;51.552;13.424;2023-08-06T02:40:01;17.80;99.90
39919;DHT22;25589;51.552;13.424;2023-08-06T02:42:27;17.80;99.90
39919;DHT22;25589;51.552;13.424;2023-08-06T02:44:53;17.80;99.90
39919;DHT22;25589;51.552;13.424;2023-08-06T02:47:22;17.80;99.90
39919;DHT22;25589;51.552;13.424;2023-08-06T02:49:47;17.80;99.90
39919;DHT22;25589;51.552;13.424;2023-08-06T02:52:13;17.90;99.90
39919;DHT22;25589;51.552;13.424;2023-08-06T02:54:38;17.80;99.90
39919;DHT22;25589;51.552;13.424;2023-08-06T02:57:05;17.80;99.90
39919;DHT22;25589;51.552;13.424;2023-08-06T02:59:33;17.80;99.90
39919;DHT22;25589;51.552;13.424;2023-08-06T03:02:12;17.80;99.90
39919;DHT22;25589;51.552;13.424;2023-08-06T03:04:47;17.80;99.90
39919;DHT22;25589;51.552;13.424;2023-08-06T03:07:13;17.70;99.90
39919;DHT22;25589;51.552;13.424;2023-08-06T03:09:47;17.70;99.90
39919;DHT22;25589;51.552;13.424;2023-08-06T03:12:13;17.60;99.90
39919;DHT22;25589;51.552;13.424;2023-08-06T03:14:39;17.60;99.90
39919;DHT22;25589;51.552;13.424;2023-08-06T03:17:06;17.60;99.90
39919;DHT22;25589;51.552;13.424;2023-08-06T03:19:32;17.70;99.90
39919;DHT22;25589;51.552;13.424;2023-08-06T03:21:58;17.60;99.90
39919;DHT22;25589;51.552;13.424;2023-08-06T03:24:24;17.80;99.90
39919;DHT22;25589;51.552;13.424;2023-08-06T03:26:50;17.60;99.90
39919;DHT22;25589;51.552;13.424;2023-08-06T03:29:16;17.60;99.90
39919;DHT22;25589;51.552;13.424;2023-08-06T03:31:43;17.50;99.90
39919;DHT22;25589;51.552;13.424;2023-08-06T03:34:11;17.60;99.90
39919;DHT22;25589;51.552;13.424;2023-08-06T03:36:37;17.60;99.90
39919;DHT22;25589;51.552;13.424;2023-08-06T03:39:02;17.50;99.90
39919;DHT22;25589;51.552;13.424;2023-08-06T03:41:30;17.50;99.90
39919;DHT22;25589;51.552;13.424;2023-08-06T03:43:56;17.50;99.90
39919;DHT22;25589;51.552;13.424;2023-08-06T03:46:25;17.50;99.90
39919;DHT22;25589;51.552;13.424;2023-08-06T03:48:51;17.50;99.90
39919;DHT22;25589;51.552;13.424;2023-08-06T03:51:17;17.50;99.90
39919;DHT22;25589;51.552;13.424;2023-08-06T03:53:45;17.50;99.90
39919;DHT22;25589;51.552;13.424;2023-08-06T03:56:10;17.40;99.90
39919;DHT22;25589;51.552;13.424;2023-08-06T03:58:36;17.50;99.90
39919;DHT22;25589;51.552;13.424;2023-08-06T04:01:02;17.50;99.90
39919;DHT22;25589;51.552;13.424;2023-08-06T04:03:40;17.60;99.90
39919;DHT22;25589;51.552;13.424;2023-08-06T04:06:07;17.60;99.90
39919;DHT22;25589;51.552;13.424;2023-08-06T04:08:33;17.60;99.90
39919;DHT22;25589;51.552;13.424;2023-08-06T04:10:58;17.60;99.90
39919;DHT22;25589;51.552;13.424;2023-08-06T04:13:24;17.50;99.90
39919;DHT22;25589;51.552;13.424;2023-08-06T04:15:49;17.60;99.90
39919;DHT22;25589;51.552;13.424;2023-08-06T04:18:15;17.60;99.90
39919;DHT22;25589;51.552;13.424;2023-08-06T04:20:47;17.50;99.90
39919;DHT22;25589;51.552;13.424;2023-08-06T04:23:14;17.50;99.90
39919;DHT22;25589;51.552;13.424;2023-08-06T04:25:40;17.50;99.90
39919;DHT22;25589;51.552;13.424;2023-08-06T04:28:07;17.50;99.90
39919;DHT22;25589;51.552;13.424;2023-08-06T04:30:32;17.50;99.90
39919;DHT22;25589;51.552;13.424;2023-08-06T04:32:58;17.50;99.90
39919;DHT22;25589;51.552;13.424;2023-08-06T04:35:25;17.50;99.90
39919;DHT22;25589;51.552;13.424;2023-08-06T04:37:51;18.10;99.90
39919;DHT22;25589;51.552;13.424;2023-08-06T04:40:17;17.50;99.90
39919;DHT22;25589;51.552;13.424;2023-08-06T04:42:43;17.50;99.90
39919;DHT22;25589;51.552;13.424;2023-08-06T04:45:09;17.50;99.90
39919;DHT22;25589;51.552;13.424;2023-08-06T04:47:34;17.40;99.90
39919;DHT22;25589;51.552;13.424;2023-08-06T04:50:00;17.50;99.90
39919;DHT22;25589;51.552;13.424;2023-08-06T04:52:25;17.50;99.90
39919;DHT22;25589;51.552;13.424;2023-08-06T04:54:54;17.50;99.90
39919;DHT22;25589;51.552;13.424;2023-08-06T04:57:19;17.50;99.90
39919;DHT22;25589;51.552;13.424;2023-08-06T04:59:45;17.50;99.90
39919;DHT22;25589;51.552;13.424;2023-08-06T05:02:11;17.50;99.90
39919;DHT22;25589;51.552;13.424;2023-08-06T05:04:36;17.60;99.90
39919;DHT22;25589;51.552;13.424;2023-08-06T05:07:02;17.60;99.90
39919;DHT22;25589;51.552;13.424;2023-08-06T05:09:27;17.60;99.90
39919;DHT22;25589;51.552;13.424;2023-08-06T05:11:53;17.60;99.90
39919;DHT22;25589;51.552;13.424;2023-08-06T05:14:18;17.60;99.90
39919;DHT22;25589;51.552;13.424;2023-08-06T05:16:44;17.60;99.90
39919;DHT22;25589;51.552;13.424;2023-08-06T05:19:10;17.60;99.90
39919;DHT22;25589;51.552;13.424;2023-08-06T05:21:35;17.60;99.90
39919;DHT22;25589;51.552;13.424;2023-08-06T05:24:01;17.60;99.90
39919;DHT22;25589;51.552;13.424;2023-08-06T05:26:26;17.60;99.90
39919;DHT22;25589;51.552;13.424;2023-08-06T05:28:52;17.70;99.90
39919;DHT22;25589;51.552;13.424;2023-08-06T05:31:17;17.70;99.90
39919;DHT22;25589;51.552;13.424;2023-08-06T05:33:43;17.60;99.90
39919;DHT22;25589;51.552;13.424;2023-08-06T05:36:09;17.50;99.90
39919;DHT22;25589;51.552;13.424;2023-08-06T05:38:35;17.60;99.90
39919;DHT22;25589;51.552;13.424;2023-08-06T05:41:01;17.70;99.90
39919;DHT22;25589;51.552;13.424;2023-08-06T05:43:26;17.70;99.90
39919;DHT22;25589;51.552;13.424;2023-08-06T05:45:52;17.70;99.90
39919;DHT22;25589;51.552;13.424;2023-08-06T05:48:17;17.80;99.90
39919;DHT22;25589;51.552;13.424;2023-08-06T05:50:43;17.80;99.90
39919;DHT22;25589;51.552;13.424;2023-08-06T05:53:08;17.70;99.90
39919;DHT22;25589;51.552;13.424;2023-08-06T05:55:34;17.80;99.90
39919;DHT22;25589;51.552;13.424;2023-08-06T05:58:00;17.80;99.90
39919;DHT22;25589;51.552;13.424;2023-08-06T06:00:26;17.80;99.90
39919;DHT22;25589;51.552;13.424;2023-08-06T06:02:52;17.80;99.90
39919;DHT22;25589;51.552;13.424;2023-08-06T06:05:17;17.90;99.90
39919;DHT22;25589;51.552;13.424;2023-08-06T06:07:43;17.90;99.90
39919;DHT22;25589;51.552;13.424;2023-08-06T06:10:09;18.00;99.90
39919;DHT22;25589;51.552;13.424;2023-08-06T06:12:34;18.00;99.90
39919;DHT22;25589;51.552;13.424;2023-08-06T06:15:00;18.10;99.90
39919;DHT22;25589;51.552;13.424;2023-08-06T06:17:27;18.10;99.90
39919;DHT22;25589;51.552;13.424;2023-08-06T06:19:52;18.10;99.90
39919;DHT22;25589;51.552;13.424;2023-08-06T06:22:18;18.20;99.90
39919;DHT22;25589;51.552;13.424;2023-08-06T06:24:43;18.20;99.90
39919;DHT22;25589;51.552;13.424;2023-08-06T06:27:09;18.10;99.90
39919;DHT22;25589;51.552;13.424;2023-08-06T06:29:34;18.20;99.90
39919;DHT22;25589;51.552;13.424;2023-08-06T06:32:00;18.00;99.90
39919;DHT22;25589;51.552;13.424;2023-08-06T06:34:25;18.20;99.90
39919;DHT22;25589;51.552;13.424;2023-08-06T06:36:51;18.20;99.90
39919;DHT22;25589;51.552;13.424;2023-08-06T06:39:17;18.30;99.90
39919;DHT22;25589;51.552;13.424;2023-08-06T06:41:43;18.20;99.90
39919;DHT22;25589;51.552;13.424;2023-08-06T06:44:17;18.40;99.90
39919;DHT22;25589;51.552;13.424;2023-08-06T06:46:45;18.30;99.90
39919;DHT22;25589;51.552;13.424;2023-08-06T06:49:11;18.30;99.90
39919;DHT22;25589;51.552;13.424;2023-08-06T06:51:37;18.40;99.90
39919;DHT22;25589;51.552;13.424;2023-08-06T06:54:02;18.50;99.90
39919;DHT22;25589;51.552;13.424;2023-08-06T06:56:28;18.40;99.90
39919;DHT22;25589;51.552;13.424;2023-08-06T06:58:53;18.40;99.90
39919;DHT22;25589;51.552;13.424;2023-08-06T07:01:19;18.50;99.90
39919;DHT22;25589;51.552;13.424;2023-08-06T07:03:45;18.50;99.90
39919;DHT22;25589;51.552;13.424;2023-08-06T07:06:10;18.60;99.90
39919;DHT22;25589;51.552;13.424;2023-08-06T07:08:37;18.60;99.90
39919;DHT22;25589;51.552;13.424;2023-08-06T07:11:04;18.70;99.90
39919;DHT22;25589;51.552;13.424;2023-08-06T07:13:30;18.70;99.90
39919;DHT22;25589;51.552;13.424;2023-08-06T07:15:55;18.70;99.90
39919;DHT22;25589;51.552;13.424;2023-08-06T07:18:22;18.70;99.90
39919;DHT22;25589;51.552;13.424;2023-08-06T07:20:49;18.80;99.90
39919;DHT22;25589;51.552;13.424;2023-08-06T07:23:14;18.80;99.90
39919;DHT22;25589;51.552;13.424;2023-08-06T07:25:40;18.80;99.90
39919;DHT22;25589;51.552;13.424;2023-08-06T07:28:05;18.90;99.90
39919;DHT22;25589;51.552;13.424;2023-08-06T07:30:31;18.90;99.90
39919;DHT22;25589;51.552;13.424;2023-08-06T07:32:56;18.90;99.90
39919;DHT22;25589;51.552;13.424;2023-08-06T07:35:22;19.30;99.90
39919;DHT22;25589;51.552;13.424;2023-08-06T07:37:48;19.00;99.90
39919;DHT22;25589;51.552;13.424;2023-08-06T07:40:13;19.00;99.90
39919;DHT22;25589;51.552;13.424;2023-08-06T07:42:39;18.90;99.90
39919;DHT22;25589;51.552;13.424;2023-08-06T07:45:06;18.90;99.90
39919;DHT22;25589;51.552;13.424;2023-08-06T07:47:32;18.90;99.90
39919;DHT22;25589;51.552;13.424;2023-08-06T07:49:58;19.00;99.90
39919;DHT22;25589;51.552;13.424;2023-08-06T07:52:23;19.20;99.90
39919;DHT22;25589;51.552;13.424;2023-08-06T07:54:49;19.20;99.90
39919;DHT22;25589;51.552;13.424;2023-08-06T07:57:14;19.40;99.90
39919;DHT22;25589;51.552;13.424;2023-08-06T07:59:40;19.30;99.90
39919;DHT22;25589;51.552;13.424;2023-08-06T08:02:06;19.30;99.90
39919;DHT22;25589;51.552;13.424;2023-08-06T08:04:31;19.30;99.90
39919;DHT22;25589;51.552;13.424;2023-08-06T08:06:57;19.30;99.90
39919;DHT22;25589;51.552;13.424;2023-08-06T08:09:23;19.30;99.90
39919;DHT22;25589;51.552;13.424;2023-08-06T08:11:48;19.30;99.90
39919;DHT22;25589;51.552;13.424;2023-08-06T08:14:14;19.30;99.90
39919;DHT22;25589;51.552;13.424;2023-08-06T08:16:40;19.40;99.90
39919;DHT22;25589;51.552;13.424;2023-08-06T08:19:05;19.40;99.90
39919;DHT22;25589;51.552;13.424;2023-08-06T08:21:31;19.50;99.90
39919;DHT22;25589;51.552;13.424;2023-08-06T08:23:58;19.50;99.90
39919;DHT22;25589;51.552;13.424;2023-08-06T08:26:24;19.30;99.90
39919;DHT22;25589;51.552;13.424;2023-08-06T08:28:49;19.30;99.90
39919;DHT22;25589;51.552;13.424;2023-08-06T08:31:15;19.30;99.90
39919;DHT22;25589;51.552;13.424;2023-08-06T08:33:41;19.30;99.90
39919;DHT22;25589;51.552;13.424;2023-08-06T08:36:07;19.30;99.90
39919;DHT22;25589;51.552;13.424;2023-08-06T08:38:35;19.40;99.90
39919;DHT22;25589;51.552;13.424;2023-08-06T08:41:01;19.30;99.90
39919;DHT22;25589;51.552;13.424;2023-08-06T08:43:27;19.40;99.90
39919;DHT22;25589;51.552;13.424;2023-08-06T08:45:54;19.50;99.90
39919;DHT22;25589;51.552;13.424;2023-08-06T08:48:26;19.60;99.90
39919;DHT22;25589;51.552;13.424;2023-08-06T08:50:53;19.80;99.90
39919;DHT22;25589;51.552;13.424;2023-08-06T08:53:18;19.90;99.90
39919;DHT22;25589;51.552;13.424;2023-08-06T08:55:48;20.00;99.90
39919;DHT22;25589;51.552;13.424;2023-08-06T08:58:14;19.90;99.90
39919;DHT22;25589;51.552;13.424;2023-08-06T09:00:48;20.00;99.90
39919;DHT22;25589;51.552;13.424;2023-08-06T09:03:14;20.20;99.90
39919;DHT22;25589;51.552;13.424;2023-08-06T09:05:43;19.90;99.90
39919;DHT22;25589;51.552;13.424;2023-08-06T09:08:11;19.90;99.90
39919;DHT22;25589;51.552;13.424;2023-08-06T09:10:38;19.70;99.90
39919;DHT22;25589;51.552;13.424;2023-08-06T09:13:04;19.70;99.90
39919;DHT22;25589;51.552;13.424;2023-08-06T09:15:30;19.70;99.90
39919;DHT22;25589;51.552;13.424;2023-08-06T09:17:55;19.80;99.90
39919;DHT22;25589;51.552;13.424;2023-08-06T09:20:21;19.80;99.90
39919;DHT22;25589;51.552;13.424;2023-08-06T09:22:47;19.90;99.90
39919;DHT22;25589;51.552;13.424;2023-08-06T09:25:24;20.00;99.90
39919;DHT22;25589;51.552;13.424;2023-08-06T09:27:51;20.00;99.90
39919;DHT22;25589;51.552;13.424;2023-08-06T09:30:30;20.00;99.90
39919;DHT22;25589;51.552;13.424;2023-08-06T09:32:56;20.10;99.90
39919;DHT22;25589;51.552;13.424;2023-08-06T09:35:22;20.10;99.90
39919;DHT22;25589;51.552;13.424;2023-08-06T09:37:48;20.10;99.90
39919;DHT22;25589;51.552;13.424;2023-08-06T09:40:32;20.00;99.90
39919;DHT22;25589;51.552;13.424;2023-08-06T09:42:58;20.00;99.90
39919;DHT22;25589;51.552;13.424;2023-08-06T09:45:35;20.10;99.90
39919;DHT22;25589;51.552;13.424;2023-08-06T09:48:08;20.10;99.90
39919;DHT22;25589;51.552;13.424;2023-08-06T09:50:36;20.10;99.90
39919;DHT22;25589;51.552;13.424;2023-08-06T09:53:03;19.90;99.90
39919;DHT22;25589;51.552;13.424;2023-08-06T09:55:29;20.00;99.90
39919;DHT22;25589;51.552;13.424;2023-08-06T09:57:55;19.90;99.90
39919;DHT22;25589;51.552;13.424;2023-08-06T10:00:21;20.00;99.90
39919;DHT22;25589;51.552;13.424;2023-08-06T10:02:48;20.00;99.90
39919;DHT22;25589;51.552;13.424;2023-08-06T10:05:15;20.10;99.90
39919;DHT22;25589;51.552;13.424;2023-08-06T10:07:43;20.00;99.90
39919;DHT22;25589;51.552;13.424;2023-08-06T10:10:09;20.00;99.90
39919;DHT22;25589;51.552;13.424;2023-08-06T10:12:39;19.90;99.90
39919;DHT22;25589;51.552;13.424;2023-08-06T10:15:09;19.70;99.90
39919;DHT22;25589;51.552;13.424;2023-08-06T10:17:37;19.90;99.90
39919;DHT22;25589;51.552;13.424;2023-08-06T10:20:05;19.80;99.90
39919;DHT22;25589;51.552;13.424;2023-08-06T10:22:33;19.80;99.90
39919;DHT22;25589;51.552;13.424;2023-08-06T10:24:59;19.80;99.90
39919;DHT22;25589;51.552;13.424;2023-08-06T10:27:32;19.80;99.90
39919;DHT22;25589;51.552;13.424;2023-08-06T10:32:57;19.60;99.90
39919;DHT22;25589;51.552;13.424;2023-08-06T10:35:44;19.70;99.90
39919;DHT22;25589;51.552;13.424;2023-08-06T10:38:15;19.60;99.90
39919;DHT22;25589;51.552;13.424;2023-08-06T10:41:02;19.60;99.90
39919;DHT22;25589;51.552;13.424;2023-08-06T10:43:29;19.50;99.90
39919;DHT22;25589;51.552;13.424;2023-08-06T10:45:58;19.50;99.90
39919;DHT22;25589;51.552;13.424;2023-08-06T10:48:37;19.30;99.90
39919;DHT22;25589;51.552;13.424;2023-08-06T10:51:06;19.40;99.90
39919;DHT22;25589;51.552;13.424;2023-08-06T10:53:32;19.40;99.90
39919;DHT22;25589;51.552;13.424;2023-08-06T10:55:58;19.50;99.90
39919;DHT22;25589;51.552;13.424;2023-08-06T10:58:23;19.50;99.90
39919;DHT22;25589;51.552;13.424;2023-08-06T11:00:49;19.50;99.90
39919;DHT22;25589;51.552;13.424;2023-08-06T11:03:14;19.30;99.90
39919;DHT22;25589;51.552;13.424;2023-08-06T11:05:40;19.50;99.90
39919;DHT22;25589;51.552;13.424;2023-08-06T11:08:06;19.10;99.90
39919;DHT22;25589;51.552;13.424;2023-08-06T11:10:33;19.10;99.90
39919;DHT22;25589;51.552;13.424;2023-08-06T11:13:03;18.90;99.90
39919;DHT22;25589;51.552;13.424;2023-08-06T11:15:30;19.00;99.90
39919;DHT22;25589;51.552;13.424;2023-08-06T11:17:56;18.90;99.90
39919;DHT22;25589;51.552;13.424;2023-08-06T11:20:22;19.30;99.90
39919;DHT22;25589;51.552;13.424;2023-08-06T11:22:48;19.30;99.90
39919;DHT22;25589;51.552;13.424;2023-08-06T11:25:13;19.10;99.90
39919;DHT22;25589;51.552;13.424;2023-08-06T11:27:39;19.40;99.90
39919;DHT22;25589;51.552;13.424;2023-08-06T11:30:05;19.40;99.90
39919;DHT22;25589;51.552;13.424;2023-08-06T11:32:31;19.30;99.90
39919;DHT22;25589;51.552;13.424;2023-08-06T11:34:58;19.80;99.90
39919;DHT22;25589;51.552;13.424;2023-08-06T11:37:23;19.80;99.90
39919;DHT22;25589;51.552;13.424;2023-08-06T11:39:50;19.90;99.90
39919;DHT22;25589;51.552;13.424;2023-08-06T11:42:16;20.00;99.90
39919;DHT22;25589;51.552;13.424;2023-08-06T11:44:42;20.00;99.90
39919;DHT22;25589;51.552;13.424;2023-08-06T11:47:15;20.20;99.90
39919;DHT22;25589;51.552;13.424;2023-08-06T11:49:46;20.20;99.90
39919;DHT22;25589;51.552;13.424;2023-08-06T11:52:25;20.30;99.90
39919;DHT22;25589;51.552;13.424;2023-08-06T11:57:30;20.50;99.90
39919;DHT22;25589;51.552;13.424;2023-08-06T12:00:01;20.60;99.90
39919;DHT22;25589;51.552;13.424;2023-08-06T12:02:42;20.70;99.90
39919;DHT22;25589;51.552;13.424;2023-08-06T12:05:18;20.60;99.90
39919;DHT22;25589;51.552;13.424;2023-08-06T12:08:04;20.70;99.90
39919;DHT22;25589;51.552;13.424;2023-08-06T12:10:31;20.50;99.90
39919;DHT22;25589;51.552;13.424;2023-08-06T12:12:57;20.70;99.90
39919;DHT22;25589;51.552;13.424;2023-08-06T12:15:23;20.60;99.90
39919;DHT22;25589;51.552;13.424;2023-08-06T12:17:49;20.60;99.90
39919;DHT22;25589;51.552;13.424;2023-08-06T12:20:15;20.50;99.90
39919;DHT22;25589;51.552;13.424;2023-08-06T12:22:40;20.30;99.90
39919;DHT22;25589;51.552;13.424;2023-08-06T12:25:08;20.50;99.90
39919;DHT22;25589;51.552;13.424;2023-08-06T12:27:43;20.60;99.90
39919;DHT22;25589;51.552;13.424;2023-08-06T12:30:10;20.50;99.90
39919;DHT22;25589;51.552;13.424;2023-08-06T12:32:36;20.60;99.90
39919;DHT22;25589;51.552;13.424;2023-08-06T12:35:02;20.50;99.90
39919;DHT22;25589;51.552;13.424;2023-08-06T12:37:28;20.50;99.90
39919;DHT22;25589;51.552;13.424;2023-08-06T12:39:54;20.50;99.90
39919;DHT22;25589;51.552;13.424;2023-08-06T12:42:19;20.50;99.90
39919;DHT22;25589;51.552;13.424;2023-08-06T12:44:45;20.60;99.90
39919;DHT22;25589;51.552;13.424;2023-08-06T12:47:11;20.50;99.90
39919;DHT22;25589;51.552;13.424;2023-08-06T12:49:36;20.50;99.90
39919;DHT22;25589;51.552;13.424;2023-08-06T12:52:02;20.40;99.90
39919;DHT22;25589;51.552;13.424;2023-08-06T12:54:30;20.40;99.90
39919;DHT22;25589;51.552;13.424;2023-08-06T12:57:02;20.40;99.90
39919;DHT22;25589;51.552;13.424;2023-08-06T12:59:27;20.30;99.90
39919;DHT22;25589;51.552;13.424;2023-08-06T13:01:53;20.30;99.90
39919;DHT22;25589;51.552;13.424;2023-08-06T13:04:18;20.50;99.90
39919;DHT22;25589;51.552;13.424;2023-08-06T13:06:44;20.20;99.90
39919;DHT22;25589;51.552;13.424;2023-08-06T13:09:10;20.30;99.90
39919;DHT22;25589;51.552;13.424;2023-08-06T13:11:36;20.30;99.90
39919;DHT22;25589;51.552;13.424;2023-08-06T13:14:08;20.40;99.90
39919;DHT22;25589;51.552;13.424;2023-08-06T13:16:34;20.50;99.90
39919;DHT22;25589;51.552;13.424;2023-08-06T13:19:00;20.30;99.90
39919;DHT22;25589;51.552;13.424;2023-08-06T13:21:34;20.30;99.90
39919;DHT22;25589;51.552;13.424;2023-08-06T13:24:03;20.10;99.90
39919;DHT22;25589;51.552;13.424;2023-08-06T13:26:32;20.30;99.90
39919;DHT22;25589;51.552;13.424;2023-08-06T13:28:58;20.40;99.90
39919;DHT22;25589;51.552;13.424;2023-08-06T13:31:25;20.40;99.90
39919;DHT22;25589;51.552;13.424;2023-08-06T13:33:51;20.50;99.90
39919;DHT22;25589;51.552;13.424;2023-08-06T13:36:17;20.60;99.90
39919;DHT22;25589;51.552;13.424;2023-08-06T13:38:42;20.70;99.90
39919;DHT22;25589;51.552;13.424;2023-08-06T13:41:08;20.70;99.90
39919;DHT22;25589;51.552;13.424;2023-08-06T13:43:34;20.70;99.90
39919;DHT22;25589;51.552;13.424;2023-08-06T13:45:59;20.70;99.90
39919;DHT22;25589;51.552;13.424;2023-08-06T13:48:25;20.60;99.90
39919;DHT22;25589;51.552;13.424;2023-08-06T13:50:50;20.70;99.90
39919;DHT22;25589;51.552;13.424;2023-08-06T13:53:16;20.80;99.90
39919;DHT22;25589;51.552;13.424;2023-08-06T13:55:41;20.80;99.90
39919;DHT22;25589;51.552;13.424;2023-08-06T13:58:07;20.80;99.90
39919;DHT22;25589;51.552;13.424;2023-08-06T14:00:35;20.80;99.90
39919;DHT22;25589;51.552;13.424;2023-08-06T14:03:00;21.00;99.90
39919;DHT22;25589;51.552;13.424;2023-08-06T14:05:26;21.20;99.90
39919;DHT22;25589;51.552;13.424;2023-08-06T14:07:51;21.20;99.90
39919;DHT22;25589;51.552;13.424;2023-08-06T14:10:17;21.20;99.90
39919;DHT22;25589;51.552;13.424;2023-08-06T14:12:43;21.20;99.90
39919;DHT22;25589;51.552;13.424;2023-08-06T14:15:09;21.20;99.90
39919;DHT22;25589;51.552;13.424;2023-08-06T14:17:34;21.00;99.90
39919;DHT22;25589;51.552;13.424;2023-08-06T14:20:00;21.20;99.90
39919;DHT22;25589;51.552;13.424;2023-08-06T14:22:26;21.20;99.90
39919;DHT22;25589;51.552;13.424;2023-08-06T14:24:51;21.30;99.90
39919;DHT22;25589;51.552;13.424;2023-08-06T14:27:17;21.30;99.90
39919;DHT22;25589;51.552;13.424;2023-08-06T14:29:43;21.30;99.90
39919;DHT22;25589;51.552;13.424;2023-08-06T14:32:08;21.30;99.90
39919;DHT22;25589;51.552;13.424;2023-08-06T14:34:34;21.30;99.90
39919;DHT22;25589;51.552;13.424;2023-08-06T14:37:00;21.30;99.90
39919;DHT22;25589;51.552;13.424;2023-08-06T14:39:26;21.30;99.90
39919;DHT22;25589;51.552;13.424;2023-08-06T14:41:51;21.40;99.90
39919;DHT22;25589;51.552;13.424;2023-08-06T14:44:17;21.40;99.90
39919;DHT22;25589;51.552;13.424;2023-08-06T14:46:42;21.50;99.90
39919;DHT22;25589;51.552;13.424;2023-08-06T14:49:08;21.50;99.90
39919;DHT22;25589;51.552;13.424;2023-08-06T14:51:33;21.60;99.90
39919;DHT22;25589;51.552;13.424;2023-08-06T14:53:59;21.70;99.90
39919;DHT22;25589;51.552;13.424;2023-08-06T14:56:24;21.70;99.90
39919;DHT22;25589;51.552;13.424;2023-08-06T14:58:50;21.80;99.90
39919;DHT22;25589;51.552;13.424;2023-08-06T15:01:16;21.60;99.90
39919;DHT22;25589;51.552;13.424;2023-08-06T15:03:41;21.60;99.90
39919;DHT22;25589;51.552;13.424;2023-08-06T15:06:07;21.60;99.90
39919;DHT22;25589;51.552;13.424;2023-08-06T15:08:33;21.60;99.90
39919;DHT22;25589;51.552;13.424;2023-08-06T15:10:58;21.60;99.90
39919;DHT22;25589;51.552;13.424;2023-08-06T15:13:27;21.50;99.90
39919;DHT22;25589;51.552;13.424;2023-08-06T15:15:52;21.50;99.90
39919;DHT22;25589;51.552;13.424;2023-08-06T15:18:18;21.40;99.90
39919;DHT22;25589;51.552;13.424;2023-08-06T15:20:44;21.40;99.90